sensor_id;sensor_type;location;lat;lon;timestamp;temperature;humidity
2447;DHT22;26430;48.818;9.244;2023-05-02T00:01:28;11.30;99.90
2447;DHT22;26430;48.818;9.244;2023-05-02T00:03:54;11.50;99.90
2447;DHT22;26430;48.818;9.244;2023-05-02T00:06:19;11.60;99.90
2447;DHT22;26430;48.818;9.244;2023-05-02T00:08:45;11.40;99.90
2447;DHT22;26430;48.818;9.244;2023-05-02T00:11:10;11.40;99.90
2447;DHT22;26430;48.818;9.244;2023-05-02T00:13:36;11.40;99.90
2447;DHT22;26430;48.818;9.244;2023-05-02T00:16:02;11.40;99.90
2447;DHT22;26430;48.818;9.244;2023-05-02T00:18:27;11.30;99.90
2447;DHT22;26430;48.818;9.244;2023-05-02T00:20:54;11.30;99.90
2447;DHT22;26430;48.818;9.244;2023-05-02T00:23:20;11.30;99.90
2447;DHT22;26430;48.818;9.244;2023-05-02T00:25:46;11.20;99.90
2447;DHT22;26430;48.818;9.244;2023-05-02T00:28:11;10.90;99.90
2447;DHT22;26430;48.818;9.244;2023-05-02T00:30:44;11.10;99.90
2447;DHT22;26430;48.818;9.244;2023-05-02T00:33:11;11.00;99.90
2447;DHT22;26430;48.818;9.244;2023-05-02T00:35:37;11.00;99.90
2447;DHT22;26430;48.818;9.244;2023-05-02T00:38:03;11.00;99.90
2447;DHT22;26430;48.818;9.244;2023-05-02T00:40:28;10.80;99.90
2447;DHT22;26430;48.818;9.244;2023-05-02T00:42:54;11.00;99.90
2447;DHT22;26430;48.818;9.244;2023-05-02T00:45:19;11.10;99.90
2447;DHT22;26430;48.818;9.244;2023-05-02T00:47:45;11.10;99.90
2447;DHT22;26430;48.818;9.244;2023-05-02T00:50:11;11.10;99.90
2447;DHT22;26430;48.818;9.244;2023-05-02T00:52:37;11.20;99.90
2447;DHT22;26430;48.818;9.244;2023-05-02T00:55:03;11.20;99.90
2447;DHT22;26430;48.818;9.244;2023-05-02T00:57:28;10.90;99.90
2447;DHT22;26430;48.818;9.244;2023-05-02T00:59:55;10.80;99.90
2447;DHT22;26430;48.818;9.244;2023-05-02T01:02:36;10.90;99.90
2447;DHT22;26430;48.818;9.244;2023-05-02T01:05:14;10.80;99.90
2447;DHT22;26430;48.818;9.244;2023-05-02T01:08:19;10.90;99.90
2447;DHT22;26430;48.818;9.244;2023-05-02T01:10:48;10.80;99.90
2447;DHT22;26430;48.818;9.244;2023-05-02T01:13:31;10.90;99.90
2447;DHT22;26430;48.818;9.244;2023-05-02T01:15:58;10.80;99.90
2447;DHT22;26430;48.818;9.244;2023-05-02T01:18:29;10.80;99.90
2447;DHT22;26430;48.818;9.244;2023-05-02T01:20:59;10.70;99.90
2447;DHT22;26430;48.818;9.244;2023-05-02T01:23:37;10.70;99.90
2447;DHT22;26430;48.818;9.244;2023-05-02T01:26:18;10.60;99.90
2447;DHT22;26430;48.818;9.244;2023-05-02T01:29:05;10.80;99.90
2447;DHT22;26430;48.818;9.244;2023-05-02T01:31:38;10.50;99.90
2447;DHT22;26430;48.818;9.244;2023-05-02T01:34:08;10.50;99.90
2447;DHT22;26430;48.818;9.244;2023-05-02T01:36:43;10.50;99.90
2447;DHT22;26430;48.818;9.244;2023-05-02T01:39:13;10.40;99.90
2447;DHT22;26430;48.818;9.244;2023-05-02T01:41:40;10.40;99.90
2447;DHT22;26430;48.818;9.244;2023-05-02T01:44:07;10.40;99.90
2447;DHT22;26430;48.818;9.244;2023-05-02T01:46:36;10.40;99.90
2447;DHT22;26430;48.818;9.244;2023-05-02T01:49:05;10.40;99.90
2447;DHT22;26430;48.818;9.244;2023-05-02T01:51:44;10.50;99.90
2447;DHT22;26430;48.818;9.244;2023-05-02T01:54:12;10.40;99.90
2447;DHT22;26430;48.818;9.244;2023-05-02T01:56:38;10.60;99.90
2447;DHT22;26430;48.818;9.244;2023-05-02T01:59:07;10.50;99.90
2447;DHT22;26430;48.818;9.244;2023-05-02T02:01:35;10.60;99.90
2447;DHT22;26430;48.818;9.244;2023-05-02T02:04:01;10.50;99.90
2447;DHT22;26430;48.818;9.244;2023-05-02T02:06:28;10.70;99.90
2447;DHT22;26430;48.818;9.244;2023-05-02T02:08:54;10.70;99.90
2447;DHT22;26430;48.818;9.244;2023-05-02T02:11:33;10.60;99.90
2447;DHT22;26430;48.818;9.244;2023-05-02T02:14:05;10.30;99.90
2447;DHT22;26430;48.818;9.244;2023-05-02T02:16:33;10.20;99.90
2447;DHT22;26430;48.818;9.244;2023-05-02T02:19:06;10.20;99.90
2447;DHT22;26430;48.818;9.244;2023-05-02T02:21:33;10.10;99.90
2447;DHT22;26430;48.818;9.244;2023-05-02T02:24:02;10.10;99.90
2447;DHT22;26430;48.818;9.244;2023-05-02T02:26:28;10.20;99.90
2447;DHT22;26430;48.818;9.244;2023-05-02T02:28:55;10.40;99.90
2447;DHT22;26430;48.818;9.244;2023-05-02T02:31:20;10.40;99.90
2447;DHT22;26430;48.818;9.244;2023-05-02T02:33:46;10.20;99.90
2447;DHT22;26430;48.818;9.244;2023-05-02T02:39:07;10.00;99.90
2447;DHT22;26430;48.818;9.244;2023-05-02T02:41:41;9.90;99.90
2447;DHT22;26430;48.818;9.244;2023-05-02T02:44:31;10.00;99.90
2447;DHT22;26430;48.818;9.244;2023-05-02T02:47:16;9.90;99.90
2447;DHT22;26430;48.818;9.244;2023-05-02T02:49:49;9.80;99.90
2447;DHT22;26430;48.818;9.244;2023-05-02T02:52:31;9.80;99.90
2447;DHT22;26430;48.818;9.244;2023-05-02T02:55:24;9.80;99.90
2447;DHT22;26430;48.818;9.244;2023-05-02T02:58:01;10.00;99.90
2447;DHT22;26430;48.818;9.244;2023-05-02T03:00:28;10.10;99.90
2447;DHT22;26430;48.818;9.244;2023-05-02T03:02:54;9.90;99.90
2447;DHT22;26430;48.818;9.244;2023-05-02T03:05:21;9.90;99.90
2447;DHT22;26430;48.818;9.244;2023-05-02T03:07:47;9.80;99.90
2447;DHT22;26430;48.818;9.244;2023-05-02T03:10:13;9.80;99.90
2447;DHT22;26430;48.818;9.244;2023-05-02T03:12:39;9.70;99.90
2447;DHT22;26430;48.818;9.244;2023-05-02T03:17:54;9.70;99.90
2447;DHT22;26430;48.818;9.244;2023-05-02T03:20:20;9.60;99.90
2447;DHT22;26430;48.818;9.244;2023-05-02T03:22:45;9.50;99.90
2447;DHT22;26430;48.818;9.244;2023-05-02T03:25:11;9.60;99.90
2447;DHT22;26430;48.818;9.244;2023-05-02T03:27:37;9.60;99.90
2447;DHT22;26430;48.818;9.244;2023-05-02T03:30:02;9.60;99.90
2447;DHT22;26430;48.818;9.244;2023-05-02T03:32:28;9.50;99.90
2447;DHT22;26430;48.818;9.244;2023-05-02T03:34:53;9.50;99.90
2447;DHT22;26430;48.818;9.244;2023-05-02T03:37:23;9.60;99.90
2447;DHT22;26430;48.818;9.244;2023-05-02T03:39:49;9.60;99.90
2447;DHT22;26430;48.818;9.244;2023-05-02T03:42:14;9.50;99.90
2447;DHT22;26430;48.818;9.244;2023-05-02T03:44:40;9.50;99.90
2447;DHT22;26430;48.818;9.244;2023-05-02T03:47:05;9.40;99.90
2447;DHT22;26430;48.818;9.244;2023-05-02T03:49:33;9.50;99.90
2447;DHT22;26430;48.818;9.244;2023-05-02T03:51:59;9.40;99.90
2447;DHT22;26430;48.818;9.244;2023-05-02T03:54:25;9.60;99.90
2447;DHT22;26430;48.818;9.244;2023-05-02T03:56:53;9.60;99.90
2447;DHT22;26430;48.818;9.244;2023-05-02T03:59:18;9.80;99.90
2447;DHT22;26430;48.818;9.244;2023-05-02T04:01:47;9.90;99.90
2447;DHT22;26430;48.818;9.244;2023-05-02T04:04:13;9.90;99.90
2447;DHT22;26430;48.818;9.244;2023-05-02T04:06:38;10.10;99.90
2447;DHT22;26430;48.818;9.244;2023-05-02T04:09:04;10.00;99.90
2447;DHT22;26430;48.818;9.244;2023-05-02T04:11:30;10.00;99.90
2447;DHT22;26430;48.818;9.244;2023-05-02T04:13:55;10.00;99.90
2447;DHT22;26430;48.818;9.244;2023-05-02T04:16:21;10.10;99.90
2447;DHT22;26430;48.818;9.244;2023-05-02T04:18:47;10.00;99.90
2447;DHT22;26430;48.818;9.244;2023-05-02T04:21:12;9.90;99.90
2447;DHT22;26430;48.818;9.244;2023-05-02T04:23:38;9.90;99.90
2447;DHT22;26430;48.818;9.244;2023-05-02T04:26:04;9.80;99.90
2447;DHT22;26430;48.818;9.244;2023-05-02T04:28:30;9.90;99.90
2447;DHT22;26430;48.818;9.244;2023-05-02T04:30:56;9.80;99.90
2447;DHT22;26430;48.818;9.244;2023-05-02T04:33:22;9.80;99.90
2447;DHT22;26430;48.818;9.244;2023-05-02T04:35:48;9.80;99.90
2447;DHT22;26430;48.818;9.244;2023-05-02T04:38:14;9.80;99.90
2447;DHT22;26430;48.818;9.244;2023-05-02T04:40:40;9.80;99.90
2447;DHT22;26430;48.818;9.244;2023-05-02T04:43:05;9.80;99.90
2447;DHT22;26430;48.818;9.244;2023-05-02T04:45:34;9.80;99.90
2447;DHT22;26430;48.818;9.244;2023-05-02T04:48:00;9.80;99.90
2447;DHT22;26430;48.818;9.244;2023-05-02T04:50:26;9.90;99.90
2447;DHT22;26430;48.818;9.244;2023-05-02T04:52:52;9.90;99.90
2447;DHT22;26430;48.818;9.244;2023-05-02T04:55:18;10.00;99.90
2447;DHT22;26430;48.818;9.244;2023-05-02T04:57:44;10.10;99.90
2447;DHT22;26430;48.818;9.244;2023-05-02T05:00:10;10.10;99.90
2447;DHT22;26430;48.818;9.244;2023-05-02T05:02:36;10.30;99.90
2447;DHT22;26430;48.818;9.244;2023-05-02T05:05:01;10.40;99.90
2447;DHT22;26430;48.818;9.244;2023-05-02T05:07:27;10.30;99.90
2447;DHT22;26430;48.818;9.244;2023-05-02T05:09:52;10.30;99.90
2447;DHT22;26430;48.818;9.244;2023-05-02T05:12:18;10.40;99.90
2447;DHT22;26430;48.818;9.244;2023-05-02T05:14:44;10.50;99.90
2447;DHT22;26430;48.818;9.244;2023-05-02T05:17:09;10.50;99.90
2447;DHT22;26430;48.818;9.244;2023-05-02T05:19:35;10.50;99.90
2447;DHT22;26430;48.818;9.244;2023-05-02T05:22:01;10.60;99.90
2447;DHT22;26430;48.818;9.244;2023-05-02T05:24:26;10.60;99.90
2447;DHT22;26430;48.818;9.244;2023-05-02T05:26:52;10.80;99.90
2447;DHT22;26430;48.818;9.244;2023-05-02T05:29:17;10.80;99.90
2447;DHT22;26430;48.818;9.244;2023-05-02T05:31:43;10.90;99.90
2447;DHT22;26430;48.818;9.244;2023-05-02T05:34:09;10.80;99.90
2447;DHT22;26430;48.818;9.244;2023-05-02T05:36:34;10.80;99.90
2447;DHT22;26430;48.818;9.244;2023-05-02T05:39:00;11.00;99.90
2447;DHT22;26430;48.818;9.244;2023-05-02T05:41:26;11.00;99.90
2447;DHT22;26430;48.818;9.244;2023-05-02T05:43:52;10.80;99.90
2447;DHT22;26430;48.818;9.244;2023-05-02T05:46:17;10.90;99.90
2447;DHT22;26430;48.818;9.244;2023-05-02T05:48:43;11.00;99.90
2447;DHT22;26430;48.818;9.244;2023-05-02T05:51:08;11.00;99.90
2447;DHT22;26430;48.818;9.244;2023-05-02T05:53:34;11.00;99.90
2447;DHT22;26430;48.818;9.244;2023-05-02T05:56:11;11.00;99.90
2447;DHT22;26430;48.818;9.244;2023-05-02T05:58:37;11.20;99.90
2447;DHT22;26430;48.818;9.244;2023-05-02T06:01:03;11.40;99.90
2447;DHT22;26430;48.818;9.244;2023-05-02T06:03:28;11.40;99.90
2447;DHT22;26430;48.818;9.244;2023-05-02T06:05:54;11.40;99.90
2447;DHT22;26430;48.818;9.244;2023-05-02T06:08:19;11.40;99.90
2447;DHT22;26430;48.818;9.244;2023-05-02T06:10:46;11.50;99.90
2447;DHT22;26430;48.818;9.244;2023-05-02T06:13:11;11.70;99.90
2447;DHT22;26430;48.818;9.244;2023-05-02T06:15:37;11.80;99.90
2447;DHT22;26430;48.818;9.244;2023-05-02T06:18:03;11.90;99.90
2447;DHT22;26430;48.818;9.244;2023-05-02T06:20:28;12.00;99.90
2447;DHT22;26430;48.818;9.244;2023-05-02T06:22:54;12.00;99.90
2447;DHT22;26430;48.818;9.244;2023-05-02T06:25:20;12.00;99.90
2447;DHT22;26430;48.818;9.244;2023-05-02T06:27:45;12.00;99.90
2447;DHT22;26430;48.818;9.244;2023-05-02T06:30:11;12.00;99.90
2447;DHT22;26430;48.818;9.244;2023-05-02T06:32:37;12.00;99.90
2447;DHT22;26430;48.818;9.244;2023-05-02T06:35:02;12.00;99.90
2447;DHT22;26430;48.818;9.244;2023-05-02T06:37:32;12.10;99.90
2447;DHT22;26430;48.818;9.244;2023-05-02T06:39:58;12.10;99.90
2447;DHT22;26430;48.818;9.244;2023-05-02T06:42:24;12.10;99.90
2447;DHT22;26430;48.818;9.244;2023-05-02T06:44:50;12.20;99.90
2447;DHT22;26430;48.818;9.244;2023-05-02T06:47:15;12.30;99.90
2447;DHT22;26430;48.818;9.244;2023-05-02T06:49:41;12.30;99.90
2447;DHT22;26430;48.818;9.244;2023-05-02T06:52:06;12.40;99.90
2447;DHT22;26430;48.818;9.244;2023-05-02T06:54:32;12.50;99.90
2447;DHT22;26430;48.818;9.244;2023-05-02T06:56:58;12.60;99.90
2447;DHT22;26430;48.818;9.244;2023-05-02T06:59:24;12.50;99.90
2447;DHT22;26430;48.818;9.244;2023-05-02T07:01:50;12.60;99.90
2447;DHT22;26430;48.818;9.244;2023-05-02T07:04:16;12.60;99.90
2447;DHT22;26430;48.818;9.244;2023-05-02T07:06:41;12.50;99.90
2447;DHT22;26430;48.818;9.244;2023-05-02T07:09:07;12.50;99.90
2447;DHT22;26430;48.818;9.244;2023-05-02T07:11:33;12.50;99.90
2447;DHT22;26430;48.818;9.244;2023-05-02T07:13:58;12.50;99.90
2447;DHT22;26430;48.818;9.244;2023-05-02T07:16:24;12.60;99.90
2447;DHT22;26430;48.818;9.244;2023-05-02T07:18:49;12.50;99.90
2447;DHT22;26430;48.818;9.244;2023-05-02T07:21:15;12.50;99.90
2447;DHT22;26430;48.818;9.244;2023-05-02T07:23:42;12.60;99.90
2447;DHT22;26430;48.818;9.244;2023-05-02T07:26:08;12.70;99.90
2447;DHT22;26430;48.818;9.244;2023-05-02T07:28:33;12.70;99.90
2447;DHT22;26430;48.818;9.244;2023-05-02T07:30:59;12.70;99.90
2447;DHT22;26430;48.818;9.244;2023-05-02T07:33:24;12.70;99.90
2447;DHT22;26430;48.818;9.244;2023-05-02T07:35:50;12.60;99.90
2447;DHT22;26430;48.818;9.244;2023-05-02T07:38:16;12.70;99.90
2447;DHT22;26430;48.818;9.244;2023-05-02T07:40:41;12.70;99.90
2447;DHT22;26430;48.818;9.244;2023-05-02T07:43:08;12.70;99.90
2447;DHT22;26430;48.818;9.244;2023-05-02T07:45:33;12.60;99.90
2447;DHT22;26430;48.818;9.244;2023-05-02T07:47:59;12.70;99.90
2447;DHT22;26430;48.818;9.244;2023-05-02T07:50:25;12.70;99.90
2447;DHT22;26430;48.818;9.244;2023-05-02T07:52:51;12.70;99.90
2447;DHT22;26430;48.818;9.244;2023-05-02T07:55:17;12.80;99.90
2447;DHT22;26430;48.818;9.244;2023-05-02T07:57:43;12.70;99.90
2447;DHT22;26430;48.818;9.244;2023-05-02T08:00:09;12.70;99.90
2447;DHT22;26430;48.818;9.244;2023-05-02T08:02:35;12.80;99.90
2447;DHT22;26430;48.818;9.244;2023-05-02T08:05:02;12.80;99.90
2447;DHT22;26430;48.818;9.244;2023-05-02T08:07:27;13.00;99.90
2447;DHT22;26430;48.818;9.244;2023-05-02T08:09:53;13.00;99.90
2447;DHT22;26430;48.818;9.244;2023-05-02T08:12:18;13.10;99.90
2447;DHT22;26430;48.818;9.244;2023-05-02T08:14:44;13.00;99.90
2447;DHT22;26430;48.818;9.244;2023-05-02T08:17:09;13.10;99.90
2447;DHT22;26430;48.818;9.244;2023-05-02T08:19:35;13.10;99.90
2447;DHT22;26430;48.818;9.244;2023-05-02T08:22:00;13.10;99.90
2447;DHT22;26430;48.818;9.244;2023-05-02T08:24:26;13.20;99.90
2447;DHT22;26430;48.818;9.244;2023-05-02T08:26:52;13.20;99.90
2447;DHT22;26430;48.818;9.244;2023-05-02T08:29:17;13.30;99.90
2447;DHT22;26430;48.818;9.244;2023-05-02T08:31:43;13.40;99.90
2447;DHT22;26430;48.818;9.244;2023-05-02T08:34:09;13.30;99.90
2447;DHT22;26430;48.818;9.244;2023-05-02T08:36:34;13.40;99.90
2447;DHT22;26430;48.818;9.244;2023-05-02T08:39:01;13.50;99.90
2447;DHT22;26430;48.818;9.244;2023-05-02T08:41:28;13.60;99.90
2447;DHT22;26430;48.818;9.244;2023-05-02T08:43:55;13.60;99.90
2447;DHT22;26430;48.818;9.244;2023-05-02T08:46:22;13.60;99.90
2447;DHT22;26430;48.818;9.244;2023-05-02T08:48:49;13.60;99.90
2447;DHT22;26430;48.818;9.244;2023-05-02T08:51:16;13.70;99.90
2447;DHT22;26430;48.818;9.244;2023-05-02T08:53:43;13.90;99.90
2447;DHT22;26430;48.818;9.244;2023-05-02T08:56:10;13.90;99.90
2447;DHT22;26430;48.818;9.244;2023-05-02T08:58:39;14.00;99.90
2447;DHT22;26430;48.818;9.244;2023-05-02T09:01:14;13.80;99.90
2447;DHT22;26430;48.818;9.244;2023-05-02T09:03:42;13.90;99.90
2447;DHT22;26430;48.818;9.244;2023-05-02T09:06:19;14.10;99.90
2447;DHT22;26430;48.818;9.244;2023-05-02T09:08:46;14.40;99.90
2447;DHT22;26430;48.818;9.244;2023-05-02T09:11:17;14.20;99.90
2447;DHT22;26430;48.818;9.244;2023-05-02T09:13:48;14.40;99.90
2447;DHT22;26430;48.818;9.244;2023-05-02T09:16:15;14.50;99.90
2447;DHT22;26430;48.818;9.244;2023-05-02T09:18:49;14.60;99.90
2447;DHT22;26430;48.818;9.244;2023-05-02T09:21:20;14.70;99.90
2447;DHT22;26430;48.818;9.244;2023-05-02T09:23:56;14.90;99.90
2447;DHT22;26430;48.818;9.244;2023-05-02T09:26:28;15.10;99.90
2447;DHT22;26430;48.818;9.244;2023-05-02T09:28:59;15.20;99.90
2447;DHT22;26430;48.818;9.244;2023-05-02T09:31:35;15.40;99.90
2447;DHT22;26430;48.818;9.244;2023-05-02T09:34:16;15.40;99.90
2447;DHT22;26430;48.818;9.244;2023-05-02T09:36:51;15.50;99.90
2447;DHT22;26430;48.818;9.244;2023-05-02T09:41:48;16.00;99.90
2447;DHT22;26430;48.818;9.244;2023-05-02T09:44:15;16.10;99.90
2447;DHT22;26430;48.818;9.244;2023-05-02T09:46:46;15.90;99.90
2447;DHT22;26430;48.818;9.244;2023-05-02T09:49:11;16.00;99.90
2447;DHT22;26430;48.818;9.244;2023-05-02T09:51:39;15.80;99.90
2447;DHT22;26430;48.818;9.244;2023-05-02T09:54:05;15.10;99.90
2447;DHT22;26430;48.818;9.244;2023-05-02T09:56:31;15.30;99.90
2447;DHT22;26430;48.818;9.244;2023-05-02T09:59:15;15.70;99.90
2447;DHT22;26430;48.818;9.244;2023-05-02T10:01:41;16.00;99.90
2447;DHT22;26430;48.818;9.244;2023-05-02T10:04:12;16.20;99.90
2447;DHT22;26430;48.818;9.244;2023-05-02T10:06:42;16.30;99.90
2447;DHT22;26430;48.818;9.244;2023-05-02T10:09:09;16.60;99.90
2447;DHT22;26430;48.818;9.244;2023-05-02T10:11:38;16.70;99.90
2447;DHT22;26430;48.818;9.244;2023-05-02T10:14:07;16.60;99.90
2447;DHT22;26430;48.818;9.244;2023-05-02T10:16:36;16.90;99.90
2447;DHT22;26430;48.818;9.244;2023-05-02T10:19:07;17.10;99.90
2447;DHT22;26430;48.818;9.244;2023-05-02T10:21:34;17.30;99.90
2447;DHT22;26430;48.818;9.244;2023-05-02T10:24:01;17.70;99.90
2447;DHT22;26430;48.818;9.244;2023-05-02T10:26:30;18.80;99.90
2447;DHT22;26430;48.818;9.244;2023-05-02T10:28:59;19.80;99.90
2447;DHT22;26430;48.818;9.244;2023-05-02T10:31:27;17.50;99.90
2447;DHT22;26430;48.818;9.244;2023-05-02T10:33:58;17.80;99.90
2447;DHT22;26430;48.818;9.244;2023-05-02T10:36:26;19.10;99.90
2447;DHT22;26430;48.818;9.244;2023-05-02T10:38:53;19.70;99.90
2447;DHT22;26430;48.818;9.244;2023-05-02T10:41:25;20.50;99.90
2447;DHT22;26430;48.818;9.244;2023-05-02T10:43:52;21.50;99.90
2447;DHT22;26430;48.818;9.244;2023-05-02T10:46:35;21.60;99.90
2447;DHT22;26430;48.818;9.244;2023-05-02T10:49:04;21.70;99.90
2447;DHT22;26430;48.818;9.244;2023-05-02T10:51:31;21.10;99.90
2447;DHT22;26430;48.818;9.244;2023-05-02T10:57:13;21.60;99.90
2447;DHT22;26430;48.818;9.244;2023-05-02T10:59:41;21.50;99.90
2447;DHT22;26430;48.818;9.244;2023-05-02T11:05:02;19.50;99.90
2447;DHT22;26430;48.818;9.244;2023-05-02T11:07:30;19.50;99.90
2447;DHT22;26430;48.818;9.244;2023-05-02T11:12:43;18.80;99.90
2447;DHT22;26430;48.818;9.244;2023-05-02T11:15:10;18.90;99.90
2447;DHT22;26430;48.818;9.244;2023-05-02T11:20:31;19.60;99.90
2447;DHT22;26430;48.818;9.244;2023-05-02T11:22:58;19.00;99.90
2447;DHT22;26430;48.818;9.244;2023-05-02T11:25:29;19.60;99.90
2447;DHT22;26430;48.818;9.244;2023-05-02T11:27:54;19.50;99.90
2447;DHT22;26430;48.818;9.244;2023-05-02T11:30:41;19.40;99.90
2447;DHT22;26430;48.818;9.244;2023-05-02T11:35:34;19.50;99.90
2447;DHT22;26430;48.818;9.244;2023-05-02T11:38:08;19.60;99.90
2447;DHT22;26430;48.818;9.244;2023-05-02T11:40:34;19.80;99.90
2447;DHT22;26430;48.818;9.244;2023-05-02T11:43:11;19.90;99.90
2447;DHT22;26430;48.818;9.244;2023-05-02T11:45:37;20.10;99.90
2447;DHT22;26430;48.818;9.244;2023-05-02T11:48:14;20.20;99.90
2447;DHT22;26430;48.818;9.244;2023-05-02T11:50:41;20.20;99.90
2447;DHT22;26430;48.818;9.244;2023-05-02T11:53:15;20.20;99.90
2447;DHT22;26430;48.818;9.244;2023-05-02T11:56:07;20.30;99.90
2447;DHT22;26430;48.818;9.244;2023-05-02T11:58:33;20.30;99.90
2447;DHT22;26430;48.818;9.244;2023-05-02T12:01:13;20.50;99.90
2447;DHT22;26430;48.818;9.244;2023-05-02T12:03:38;20.70;99.90
2447;DHT22;26430;48.818;9.244;2023-05-02T12:08:35;20.70;99.90
2447;DHT22;26430;48.818;9.244;2023-05-02T12:11:05;20.10;99.90
2447;DHT22;26430;48.818;9.244;2023-05-02T12:13:34;20.30;99.90
2447;DHT22;26430;48.818;9.244;2023-05-02T12:16:00;20.50;99.90
2447;DHT22;26430;48.818;9.244;2023-05-02T12:18:26;20.10;99.90
2447;DHT22;26430;48.818;9.244;2023-05-02T12:20:52;20.20;99.90
2447;DHT22;26430;48.818;9.244;2023-05-02T12:23:20;20.50;99.90
2447;DHT22;26430;48.818;9.244;2023-05-02T12:25:46;20.90;99.90
2447;DHT22;26430;48.818;9.244;2023-05-02T12:28:13;20.70;99.90
2447;DHT22;26430;48.818;9.244;2023-05-02T12:30:38;20.40;99.90
2447;DHT22;26430;48.818;9.244;2023-05-02T12:33:06;20.00;99.90
2447;DHT22;26430;48.818;9.244;2023-05-02T12:35:33;19.70;99.90
2447;DHT22;26430;48.818;9.244;2023-05-02T12:38:15;19.60;99.90
2447;DHT22;26430;48.818;9.244;2023-05-02T12:40:50;19.50;99.90
2447;DHT22;26430;48.818;9.244;2023-05-02T12:43:16;19.40;99.90
2447;DHT22;26430;48.818;9.244;2023-05-02T12:45:41;19.30;99.90
2447;DHT22;26430;48.818;9.244;2023-05-02T12:48:24;19.20;99.90
2447;DHT22;26430;48.818;9.244;2023-05-02T12:50:51;19.30;99.90
2447;DHT22;26430;48.818;9.244;2023-05-02T12:53:36;19.40;99.90
2447;DHT22;26430;48.818;9.244;2023-05-02T12:56:02;19.60;99.90
2447;DHT22;26430;48.818;9.244;2023-05-02T12:58:28;19.70;99.90
2447;DHT22;26430;48.818;9.244;2023-05-02T13:00:54;20.00;99.90
2447;DHT22;26430;48.818;9.244;2023-05-02T13:03:19;20.20;99.90
2447;DHT22;26430;48.818;9.244;2023-05-02T13:05:46;20.10;99.90
2447;DHT22;26430;48.818;9.244;2023-05-02T13:08:12;20.20;99.90
2447;DHT22;26430;48.818;9.244;2023-05-02T13:10:37;20.00;99.90
2447;DHT22;26430;48.818;9.244;2023-05-02T13:13:03;20.00;99.90
2447;DHT22;26430;48.818;9.244;2023-05-02T13:15:28;20.00;99.90
2447;DHT22;26430;48.818;9.244;2023-05-02T13:17:54;19.80;99.90
2447;DHT22;26430;48.818;9.244;2023-05-02T13:20:20;19.80;99.90
2447;DHT22;26430;48.818;9.244;2023-05-02T13:22:45;19.90;99.90
2447;DHT22;26430;48.818;9.244;2023-05-02T13:25:11;19.70;99.90
2447;DHT22;26430;48.818;9.244;2023-05-02T13:27:36;19.70;99.90
2447;DHT22;26430;48.818;9.244;2023-05-02T13:30:02;19.80;99.90
2447;DHT22;26430;48.818;9.244;2023-05-02T13:32:28;19.90;99.90
2447;DHT22;26430;48.818;9.244;2023-05-02T13:34:54;20.00;99.90
2447;DHT22;26430;48.818;9.244;2023-05-02T13:37:20;20.30;99.90
2447;DHT22;26430;48.818;9.244;2023-05-02T13:39:45;20.80;99.90
2447;DHT22;26430;48.818;9.244;2023-05-02T13:42:11;21.00;99.90
2447;DHT22;26430;48.818;9.244;2023-05-02T13:44:37;21.00;99.90
2447;DHT22;26430;48.818;9.244;2023-05-02T13:47:02;20.70;99.90
2447;DHT22;26430;48.818;9.244;2023-05-02T13:49:28;20.50;99.90
2447;DHT22;26430;48.818;9.244;2023-05-02T13:51:54;20.00;99.90
2447;DHT22;26430;48.818;9.244;2023-05-02T13:54:20;19.80;99.90
2447;DHT22;26430;48.818;9.244;2023-05-02T13:56:45;19.90;99.90
2447;DHT22;26430;48.818;9.244;2023-05-02T13:59:11;19.80;99.90
2447;DHT22;26430;48.818;9.244;2023-05-02T14:01:37;19.80;99.90
2447;DHT22;26430;48.818;9.244;2023-05-02T14:04:05;19.90;99.90
2447;DHT22;26430;48.818;9.244;2023-05-02T14:06:33;19.80;99.90
2447;DHT22;26430;48.818;9.244;2023-05-02T14:08:59;19.80;99.90
2447;DHT22;26430;48.818;9.244;2023-05-02T14:11:25;19.50;99.90
2447;DHT22;26430;48.818;9.244;2023-05-02T14:13:50;19.30;99.90
2447;DHT22;26430;48.818;9.244;2023-05-02T14:16:16;19.20;99.90
2447;DHT22;26430;48.818;9.244;2023-05-02T14:18:42;19.40;99.90
2447;DHT22;26430;48.818;9.244;2023-05-02T14:21:09;19.40;99.90
2447;DHT22;26430;48.818;9.244;2023-05-02T14:23:35;19.40;99.90
2447;DHT22;26430;48.818;9.244;2023-05-02T14:26:01;19.20;99.90
2447;DHT22;26430;48.818;9.244;2023-05-02T14:28:28;19.30;99.90
2447;DHT22;26430;48.818;9.244;2023-05-02T14:30:53;19.20;99.90
2447;DHT22;26430;48.818;9.244;2023-05-02T14:33:19;19.40;99.90
2447;DHT22;26430;48.818;9.244;2023-05-02T14:35:44;19.60;99.90
2447;DHT22;26430;48.818;9.244;2023-05-02T14:38:10;19.60;99.90
2447;DHT22;26430;48.818;9.244;2023-05-02T14:40:36;19.50;99.90
2447;DHT22;26430;48.818;9.244;2023-05-02T14:43:02;19.50;99.90
2447;DHT22;26430;48.818;9.244;2023-05-02T14:45:28;19.30;99.90
2447;DHT22;26430;48.818;9.244;2023-05-02T14:47:53;19.40;99.90
2447;DHT22;26430;48.818;9.244;2023-05-02T14:50:20;19.50;99.90
2447;DHT22;26430;48.818;9.244;2023-05-02T14:52:45;19.20;99.90
2447;DHT22;26430;48.818;9.244;2023-05-02T14:55:11;19.20;99.90
2447;DHT22;26430;48.818;9.244;2023-05-02T14:57:37;19.10;99.90
2447;DHT22;26430;48.818;9.244;2023-05-02T15:00:04;19.40;99.90
2447;DHT22;26430;48.818;9.244;2023-05-02T15:02:32;19.60;99.90
2447;DHT22;26430;48.818;9.244;2023-05-02T15:04:57;20.20;99.90
2447;DHT22;26430;48.818;9.244;2023-05-02T15:07:23;20.30;99.70
2447;DHT22;26430;48.818;9.244;2023-05-02T15:09:48;20.40;99.20
2447;DHT22;26430;48.818;9.244;2023-05-02T15:12:14;20.20;98.50
2447;DHT22;26430;48.818;9.244;2023-05-02T15:14:40;20.10;98.10
2447;DHT22;26430;48.818;9.244;2023-05-02T15:17:05;20.40;98.40
2447;DHT22;26430;48.818;9.244;2023-05-02T15:19:31;20.30;98.10
2447;DHT22;26430;48.818;9.244;2023-05-02T15:21:56;20.60;96.80
2447;DHT22;26430;48.818;9.244;2023-05-02T15:24:22;20.80;96.50
2447;DHT22;26430;48.818;9.244;2023-05-02T15:26:51;20.90;95.80
2447;DHT22;26430;48.818;9.244;2023-05-02T15:29:17;21.20;97.30
2447;DHT22;26430;48.818;9.244;2023-05-02T15:31:42;21.00;97.50
2447;DHT22;26430;48.818;9.244;2023-05-02T15:34:08;21.00;97.80
2447;DHT22;26430;48.818;9.244;2023-05-02T15:36:34;21.10;97.70
2447;DHT22;26430;48.818;9.244;2023-05-02T15:39:03;20.90;97.00
2447;DHT22;26430;48.818;9.244;2023-05-02T15:41:29;21.00;95.90
2447;DHT22;26430;48.818;9.244;2023-05-02T15:43:58;21.10;93.10
2447;DHT22;26430;48.818;9.244;2023-05-02T15:46:24;21.10;94.40
2447;DHT22;26430;48.818;9.244;2023-05-02T15:48:50;21.00;92.10
2447;DHT22;26430;48.818;9.244;2023-05-02T15:51:16;21.00;91.60
2447;DHT22;26430;48.818;9.244;2023-05-02T15:53:42;21.00;92.00
2447;DHT22;26430;48.818;9.244;2023-05-02T15:56:11;21.10;92.30
2447;DHT22;26430;48.818;9.244;2023-05-02T15:58:37;20.90;91.90
2447;DHT22;26430;48.818;9.244;2023-05-02T16:01:03;20.80;90.60
2447;DHT22;26430;48.818;9.244;2023-05-02T16:03:29;20.90;90.70
2447;DHT22;26430;48.818;9.244;2023-05-02T16:05:56;20.60;90.20
2447;DHT22;26430;48.818;9.244;2023-05-02T16:08:24;20.40;91.10
2447;DHT22;26430;48.818;9.244;2023-05-02T16:10:49;20.10;91.90
2447;DHT22;26430;48.818;9.244;2023-05-02T16:13:15;19.80;92.50
2447;DHT22;26430;48.818;9.244;2023-05-02T16:15:40;19.70;92.50